createdAt,value
2019-06-07T00:00:40.745Z,10.11
2019-06-07T00:03:10.716Z,10.14
2019-06-07T00:05:34.053Z,10.17
2019-06-07T00:08:07.733Z,10.14
2019-06-07T00:10:36.982Z,10.12
2019-06-07T00:12:54.033Z,10.05
2019-06-07T00:15:27.967Z,10.05
2019-06-07T00:17:47.536Z,10.05
2019-06-07T00:20:17.504Z,10.08
2019-06-07T00:22:40.978Z,10.07
2019-06-07T00:25:12.081Z,10.11
2019-06-07T00:27:34.438Z,10.18
2019-06-07T00:30:29.531Z,10.14
2019-06-07T00:32:27.902Z,9.93
2019-06-07T00:34:54.646Z,9.89
2019-06-07T00:37:25.227Z,9.84
2019-06-07T00:40:12.636Z,9.97
2019-06-07T00:42:18.626Z,10.01
2019-06-07T00:44:41.574Z,10.04
2019-06-07T00:47:08.313Z,10.11
2019-06-07T00:49:40.903Z,10.14
2019-06-07T00:52:01.882Z,10.08
2019-06-07T00:54:28.623Z,10.17
2019-06-07T00:56:55.356Z,10.16
2019-06-07T00:59:28.912Z,10.03
2019-06-07T01:01:48.854Z,10.14
2019-06-07T01:04:17.878Z,9.91
2019-06-07T01:06:42.338Z,9.88
2019-06-07T01:09:09.084Z,10.08
2019-06-07T01:11:35.798Z,9.93
2019-06-07T01:14:02.582Z,9.89
2019-06-07T01:16:53.137Z,9.83
2019-06-07T01:18:56.330Z,10.12
2019-06-07T01:21:24.830Z,10.01
2019-06-07T01:24:12.086Z,9.88
2019-06-07T01:26:18.989Z,9.96
2019-06-07T01:28:43.339Z,9.83
2019-06-07T01:31:10.048Z,9.76
2019-06-07T01:33:50.300Z,9.95
2019-06-07T01:36:03.658Z,10.08
2019-06-07T01:38:30.382Z,9.96
2019-06-07T01:40:57.139Z,9.94
2019-06-07T01:43:28.419Z,10.15
2019-06-07T01:45:50.615Z,9.98
2019-06-07T01:48:22.798Z,9.88
2019-06-07T01:50:44.947Z,10.00
2019-06-07T01:53:11.662Z,9.83
2019-06-07T01:55:38.405Z,9.86
2019-06-07T01:58:05.498Z,9.88
2019-06-07T02:00:32.886Z,9.81
2019-06-07T02:02:58.977Z,9.76
2019-06-07T02:05:30.211Z,9.73
2019-06-07T02:07:52.430Z,9.72
2019-06-07T02:10:19.691Z,9.63
2019-06-07T02:12:45.886Z,9.66
2019-06-07T02:15:12.622Z,9.57
2019-06-07T02:17:39.339Z,9.77
2019-06-07T02:20:06.097Z,9.79
2019-06-07T02:22:32.861Z,9.98
2019-06-07T02:25:34.418Z,9.98
2019-06-07T02:27:27.496Z,9.79
2019-06-07T02:29:53.070Z,9.74
2019-06-07T02:32:21.566Z,9.82
2019-06-07T02:34:46.621Z,9.63
2019-06-07T02:37:13.349Z,9.65
2019-06-07T02:39:41.093Z,9.55
2019-06-07T02:42:06.855Z,9.49
2019-06-07T02:44:39.173Z,9.50
2019-06-07T02:47:00.304Z,9.51
2019-06-07T02:49:32.961Z,9.56
2019-06-07T02:51:53.779Z,9.57
2019-06-07T02:54:20.521Z,9.57
2019-06-07T02:56:57.828Z,9.56
2019-06-07T02:59:15.244Z,9.53
2019-06-07T03:01:42.701Z,9.66
2019-06-07T03:04:08.695Z,9.59
2019-06-07T03:06:39.561Z,9.51
2019-06-07T03:09:02.450Z,9.46
2019-06-07T03:11:31.637Z,9.41
2019-06-07T03:13:55.980Z,9.41
2019-06-07T03:16:28.642Z,9.42
2019-06-07T03:19:03.570Z,9.44
2019-06-07T03:21:31.464Z,9.54
2019-06-07T03:23:57.031Z,9.53
2019-06-07T03:26:24.162Z,9.53
2019-06-07T03:28:50.898Z,9.49
2019-06-07T03:31:17.639Z,9.40
2019-06-07T03:33:45.570Z,9.57
2019-06-07T03:36:23.483Z,9.58
2019-06-07T03:38:39.938Z,9.64
2019-06-07T03:41:04.806Z,9.68
2019-06-07T03:43:35.042Z,9.52
2019-06-07T03:45:58.302Z,9.74
2019-06-07T03:48:25.511Z,9.72
2019-06-07T03:51:04.105Z,9.64
2019-06-07T03:53:18.985Z,9.68
2019-06-07T03:55:45.739Z,9.71
2019-06-07T04:00:42.947Z,9.75
2019-06-07T04:03:06.027Z,9.90
2019-06-07T04:05:38.142Z,10.02
2019-06-07T04:07:59.662Z,9.94
2019-06-07T04:10:45.772Z,9.89
2019-06-07T04:12:53.150Z,9.89
2019-06-07T04:15:19.885Z,10.06
2019-06-07T04:18:01.427Z,10.05
2019-06-07T04:20:13.382Z,10.02
2019-06-07T04:22:42.627Z,10.31
2019-06-07T04:25:07.094Z,10.40
2019-06-07T04:27:37.637Z,10.34
2019-06-07T04:30:07.059Z,10.18
2019-06-07T04:32:29.738Z,10.15
2019-06-07T04:34:54.078Z,10.09
2019-06-07T04:37:20.818Z,10.11
2019-06-07T04:39:47.563Z,10.19
2019-06-07T04:42:14.780Z,10.16
2019-06-07T04:44:42.800Z,10.17
2019-06-07T04:47:08.234Z,10.26
2019-06-07T04:49:38.237Z,10.40
2019-06-07T04:52:01.986Z,10.52
2019-06-07T04:54:31.479Z,10.55
2019-06-07T04:56:57.478Z,10.60
2019-06-07T05:00:00.916Z,10.72
2019-06-07T05:01:50.962Z,10.78
2019-06-07T05:04:17.803Z,10.74
2019-06-07T05:06:44.479Z,11.12
2019-06-07T05:09:11.230Z,11.45
2019-06-07T05:11:39.433Z,11.76
2019-06-07T05:14:04.962Z,12.03
2019-06-07T05:16:36.302Z,12.25
2019-06-07T05:18:58.424Z,12.58
2019-06-07T05:21:25.141Z,12.72
2019-06-07T05:24:10.369Z,12.77
2019-06-07T05:28:48.158Z,12.07
2019-06-07T05:31:14.893Z,11.85
2019-06-07T05:33:43.585Z,12.04
2019-06-07T05:36:08.389Z,12.29
2019-06-07T05:38:36.142Z,12.67
2019-06-07T05:41:01.856Z,12.52
2019-06-07T05:43:28.650Z,12.75
2019-06-07T05:45:55.341Z,12.85
2019-06-07T05:48:22.072Z,13.25
2019-06-07T05:50:56.597Z,13.45
2019-06-07T05:53:15.711Z,13.35
2019-06-07T05:55:47.119Z,13.40
2019-06-07T05:58:08.996Z,13.21
2019-06-07T06:00:36.848Z,13.51
2019-06-07T06:03:05.663Z,13.66
2019-06-07T06:05:34.519Z,13.66
2019-06-07T06:07:55.998Z,13.99
2019-06-07T06:10:22.750Z,14.30
2019-06-07T06:12:51.872Z,14.40
2019-06-07T06:15:16.226Z,14.63
2019-06-07T06:17:46.133Z,14.80
2019-06-07T06:20:09.671Z,14.60
2019-06-07T06:22:37.293Z,14.86
2019-06-07T06:28:03.463Z,14.92
2019-06-07T06:29:57.214Z,15.06
2019-06-07T06:32:41.709Z,15.26
2019-06-07T06:34:53.896Z,15.18
2019-06-07T06:37:17.469Z,15.85
2019-06-07T06:39:47.647Z,15.52
2019-06-07T06:42:10.930Z,15.61
2019-06-07T06:44:40.770Z,15.63
2019-06-07T06:47:04.413Z,15.96
2019-06-07T06:49:31.149Z,16.35
2019-06-07T06:51:57.874Z,16.46
2019-06-07T06:54:40.105Z,16.07
2019-06-07T06:56:52.793Z,16.24
2019-06-07T07:01:45.737Z,16.51
2019-06-07T07:04:13.430Z,16.29
2019-06-07T07:06:38.399Z,16.47
2019-06-07T07:09:05.778Z,16.83
2019-06-07T07:11:32.525Z,16.62
2019-06-07T07:13:59.242Z,16.60
2019-06-07T07:16:26.009Z,16.59
2019-06-07T07:18:54.571Z,16.91
2019-06-07T07:21:19.434Z,17.05
2019-06-07T07:24:07.807Z,17.51
2019-06-07T07:26:12.894Z,16.83
2019-06-07T07:28:39.614Z,16.85
2019-06-07T07:31:06.365Z,17.26
2019-06-07T07:34:20.819Z,17.64
2019-06-07T07:38:26.546Z,17.60
2019-06-07T07:41:07.403Z,17.12
2019-06-07T07:43:20.108Z,17.48
2019-06-07T07:45:51.030Z,17.32
2019-06-07T07:48:18.047Z,17.75
2019-06-07T07:50:40.250Z,17.54
2019-06-07T07:53:06.991Z,17.75
2019-06-07T07:55:33.755Z,17.78
2019-06-07T07:58:01.909Z,17.81
2019-06-07T08:00:50.323Z,18.04
2019-06-07T08:02:58.613Z,18.22
2019-06-07T08:05:33.639Z,18.39
2019-06-07T08:07:50.041Z,19.09
2019-06-07T08:10:14.213Z,18.95
2019-06-07T08:13:00.710Z,19.11
2019-06-07T08:15:07.724Z,19.22
2019-06-07T08:17:34.406Z,19.84
2019-06-07T08:20:02.812Z,19.49
2019-06-07T08:22:27.895Z,19.37
2019-06-07T08:24:55.965Z,19.14
2019-06-07T08:27:26.545Z,19.22
2019-06-07T08:30:11.912Z,19.64
2019-06-07T08:32:14.883Z,19.80
2019-06-07T08:34:41.678Z,19.62
2019-06-07T08:37:08.358Z,19.44
2019-06-07T08:39:35.094Z,19.23
2019-06-07T08:42:15.365Z,19.52
2019-06-07T08:44:28.574Z,19.90
2019-06-07T08:47:12.576Z,20.23
2019-06-07T08:49:22.054Z,19.42
2019-06-07T08:51:48.790Z,19.83
2019-06-07T08:54:22.727Z,19.83
2019-06-07T08:56:43.579Z,19.86
2019-06-07T08:59:11.419Z,20.20
2019-06-07T09:01:35.809Z,20.25
2019-06-07T09:04:07.761Z,21.08
2019-06-07T09:08:58.155Z,20.78
2019-06-07T09:11:22.773Z,20.37
2019-06-07T09:13:49.506Z,20.48
2019-06-07T09:16:16.256Z,20.30
2019-06-07T09:18:44.980Z,20.51
2019-06-07T09:21:10.017Z,20.79
2019-06-07T09:23:36.474Z,21.14
2019-06-07T09:26:15.356Z,20.99
2019-06-07T09:28:29.950Z,21.16
2019-06-07T09:30:59.260Z,20.90
2019-06-07T09:33:23.418Z,20.91
2019-06-07T09:35:50.214Z,21.60
2019-06-07T09:38:25.533Z,21.17
2019-06-07T09:40:43.666Z,21.32
2019-06-07T09:45:37.195Z,21.48
2019-06-07T09:48:10.077Z,21.89
2019-06-07T09:50:30.720Z,21.87
2019-06-07T09:53:04.897Z,22.31
2019-06-07T09:55:25.183Z,22.05
2019-06-07T09:57:50.960Z,22.14
2019-06-07T10:02:44.445Z,23.84
2019-06-07T10:05:14.006Z,23.43
2019-06-07T10:07:37.930Z,23.89
2019-06-07T10:12:31.408Z,23.17
2019-06-07T10:14:58.710Z,23.68
2019-06-07T10:17:24.884Z,23.21
2019-06-07T10:19:51.626Z,23.31
2019-06-07T10:22:18.371Z,23.37
2019-06-07T10:24:45.102Z,23.21
2019-06-07T10:27:11.887Z,23.42
2019-06-07T10:29:38.604Z,24.04
2019-06-07T10:32:06.765Z,24.21
2019-06-07T10:34:32.114Z,24.49
2019-06-07T10:36:58.925Z,24.14
2019-06-07T10:39:25.598Z,23.66
2019-06-07T10:41:54.152Z,22.91
2019-06-07T10:44:19.062Z,23.04
2019-06-07T10:46:45.806Z,23.30
2019-06-07T10:49:12.539Z,23.66
2019-06-07T10:51:39.270Z,24.01
2019-06-07T10:54:19.421Z,23.85
2019-06-07T10:56:32.781Z,24.06
2019-06-07T10:58:59.533Z,24.19
2019-06-07T11:01:26.330Z,24.17
2019-06-07T11:03:53.045Z,23.99
2019-06-07T11:06:19.790Z,23.79
2019-06-07T11:08:46.545Z,23.95
2019-06-07T11:11:14.437Z,24.55
2019-06-07T11:13:40.009Z,24.60
2019-06-07T11:16:06.925Z,24.87
2019-06-07T11:18:33.485Z,25.30
2019-06-07T11:21:00.211Z,24.44
2019-06-07T11:23:26.994Z,24.72
2019-06-07T11:25:53.723Z,24.34
2019-06-07T11:28:20.462Z,24.58
2019-06-07T11:30:47.192Z,25.01
2019-06-07T11:33:16.394Z,24.33
2019-06-07T11:35:40.681Z,24.05
2019-06-07T11:38:08.299Z,24.30
2019-06-07T11:40:35.861Z,24.49
2019-06-07T11:43:01.195Z,24.49
2019-06-07T11:45:28.243Z,24.71
2019-06-07T11:47:59.077Z,24.80
2019-06-07T11:50:24.576Z,24.96
2019-06-07T11:52:51.962Z,24.90
2019-06-07T11:55:19.094Z,24.87
2019-06-07T11:57:45.849Z,25.14
2019-06-07T12:00:13.914Z,25.95
2019-06-07T12:02:39.605Z,26.33
2019-06-07T12:05:07.474Z,26.37
2019-06-07T12:07:35.578Z,26.80
2019-06-07T12:10:02.381Z,26.13
2019-06-07T12:12:29.147Z,25.97
2019-06-07T12:14:55.863Z,26.45
2019-06-07T12:17:23.753Z,27.26
2019-06-07T12:19:49.880Z,27.00
2019-06-07T12:22:22.018Z,26.97
2019-06-07T12:24:50.258Z,26.89
2019-06-07T12:27:18.729Z,26.67
2019-06-07T12:29:45.254Z,26.60
2019-06-07T12:32:13.302Z,26.76
2019-06-07T12:34:39.534Z,26.85
2019-06-07T12:37:06.681Z,26.67
2019-06-07T12:39:33.442Z,26.70
2019-06-07T12:42:00.270Z,26.30
2019-06-07T12:44:28.017Z,26.57
2019-06-07T12:46:56.186Z,26.71
2019-06-07T12:49:27.410Z,26.87
2019-06-07T12:51:54.921Z,27.19
2019-06-07T12:54:23.733Z,27.03
2019-06-07T12:56:52.231Z,26.96
2019-06-07T12:59:17.898Z,27.21
2019-06-07T13:01:44.603Z,27.13
2019-06-07T13:04:14.308Z,26.79
2019-06-07T13:06:41.083Z,26.93
2019-06-07T13:09:09.441Z,27.02
2019-06-07T13:11:35.606Z,26.85
2019-06-07T13:14:02.669Z,26.87
2019-06-07T13:16:30.372Z,26.86
2019-06-07T13:18:58.150Z,26.87
2019-06-07T13:21:25.547Z,27.15
2019-06-07T13:23:52.407Z,27.01
2019-06-07T13:26:20.502Z,27.25
2019-06-07T13:28:47.665Z,27.10
2019-06-07T13:31:16.429Z,27.17
2019-06-07T13:33:46.555Z,27.17
2019-06-07T13:36:16.358Z,27.32
2019-06-07T13:38:43.619Z,27.70
2019-06-07T13:41:10.332Z,27.49
2019-06-07T13:43:40.099Z,27.45
2019-06-07T13:46:07.827Z,27.82
2019-06-07T13:48:37.360Z,27.98
2019-06-07T13:51:04.277Z,27.95
2019-06-07T13:53:31.284Z,28.10
2019-06-07T13:55:58.135Z,27.60
2019-06-07T13:58:26.366Z,27.88
2019-06-07T14:00:52.618Z,27.83
2019-06-07T14:03:23.671Z,27.95
2019-06-07T14:05:47.314Z,28.12
2019-06-07T14:08:14.927Z,28.33
2019-06-07T14:10:42.660Z,28.49
2019-06-07T14:13:12.936Z,28.12
2019-06-07T14:15:40.508Z,27.91
2019-06-07T14:18:07.659Z,27.88
2019-06-07T14:20:36.318Z,27.71
2019-06-07T14:23:04.014Z,27.83
2019-06-07T14:25:32.000Z,27.75
2019-06-07T14:27:59.409Z,27.92
2019-06-07T14:30:28.425Z,27.88
2019-06-07T14:32:53.721Z,27.94
2019-06-07T14:35:22.461Z,28.21
2019-06-07T14:37:51.686Z,28.16
2019-06-07T14:40:20.531Z,28.91
2019-06-07T14:42:49.095Z,29.04
2019-06-07T14:45:18.722Z,28.89
2019-06-07T14:47:46.291Z,29.39
2019-06-07T14:50:15.197Z,29.45
2019-06-07T14:52:42.615Z,29.70
2019-06-07T14:55:10.296Z,29.93
2019-06-07T14:57:37.884Z,30.22
2019-06-07T15:00:11.492Z,30.63
2019-06-07T15:02:45.140Z,30.64
2019-06-07T15:05:13.107Z,30.84
2019-06-07T15:07:44.162Z,30.89
2019-06-07T15:10:13.006Z,30.19
2019-06-07T15:12:40.170Z,29.73
2019-06-07T15:15:06.522Z,28.92
2019-06-07T15:17:35.306Z,28.85
2019-06-07T15:20:01.450Z,28.76
2019-06-07T15:22:30.067Z,28.73
2019-06-07T15:24:56.794Z,29.29
2019-06-07T15:27:23.164Z,27.78
2019-06-07T15:29:50.626Z,27.66
2019-06-07T15:32:18.955Z,27.38
2019-06-07T15:34:46.312Z,27.01
2019-06-07T15:37:13.038Z,26.17
2019-06-07T15:39:39.753Z,25.85
2019-06-07T15:42:06.506Z,25.42
2019-06-07T15:44:33.375Z,24.83
2019-06-07T15:46:59.973Z,24.22
2019-06-07T15:49:26.714Z,23.47
2019-06-07T15:51:53.466Z,23.56
2019-06-07T15:54:20.205Z,23.58
2019-06-07T15:56:47.043Z,24.09
2019-06-07T15:59:13.770Z,23.96
2019-06-07T16:01:41.918Z,23.83
2019-06-07T16:04:07.256Z,23.86
2019-06-07T16:06:34.357Z,24.17
2019-06-07T16:09:00.815Z,24.19
2019-06-07T16:11:27.558Z,24.63
2019-06-07T16:13:54.291Z,25.31
2019-06-07T16:16:21.042Z,25.16
2019-06-07T16:18:47.780Z,24.93
2019-06-07T16:21:14.530Z,24.73
2019-06-07T16:23:42.146Z,24.56
2019-06-07T16:26:08.122Z,23.44
2019-06-07T16:28:34.855Z,22.32
2019-06-07T16:31:01.634Z,21.21
2019-06-07T16:33:28.486Z,20.64
2019-06-07T16:35:55.229Z,20.06
2019-06-07T16:38:21.992Z,20.01
2019-06-07T16:40:48.893Z,19.56
2019-06-07T16:43:17.846Z,19.37
2019-06-07T16:45:42.814Z,19.18
2019-06-07T16:48:08.983Z,19.06
2019-06-07T16:50:36.701Z,19.11
2019-06-07T16:53:02.476Z,18.91
2019-06-07T16:55:29.194Z,18.63
2019-06-07T16:57:55.946Z,18.28
2019-06-07T17:00:22.680Z,18.18
2019-06-07T17:02:49.514Z,18.19
2019-06-07T17:05:16.282Z,17.98
2019-06-07T17:07:44.657Z,17.94
2019-06-07T17:10:09.763Z,17.92
2019-06-07T17:12:36.596Z,17.90
2019-06-07T17:15:04.178Z,17.83
2019-06-07T17:17:30.914Z,17.86
2019-06-07T17:19:57.702Z,17.77
2019-06-07T17:22:24.456Z,17.70
2019-06-07T17:24:51.189Z,17.62
2019-06-07T17:27:17.951Z,17.64
2019-06-07T17:29:45.830Z,17.56
2019-06-07T17:32:11.446Z,17.53
2019-06-07T17:34:38.177Z,17.47
2019-06-07T17:37:04.916Z,17.35
2019-06-07T17:39:31.647Z,17.33
2019-06-07T17:42:02.245Z,17.34
2019-06-07T17:44:25.230Z,17.29
2019-06-07T17:46:51.974Z,17.30
2019-06-07T17:49:18.712Z,17.22
2019-06-07T17:51:45.910Z,17.05
2019-06-07T17:54:12.271Z,16.98
2019-06-07T17:56:39.241Z,16.96
2019-06-07T17:59:05.996Z,16.87
2019-06-07T18:01:40.987Z,16.74
2019-06-07T18:03:59.839Z,16.88
2019-06-07T18:06:26.598Z,16.82
2019-06-07T18:08:53.797Z,16.83
2019-06-07T18:11:20.281Z,16.81
2019-06-07T18:13:48.187Z,16.88
2019-06-07T18:16:13.926Z,17.03
2019-06-07T18:18:40.714Z,17.14
2019-06-07T18:21:07.542Z,17.24
2019-06-07T18:23:34.293Z,17.13
2019-06-07T18:26:01.253Z,16.96
2019-06-07T18:28:27.902Z,16.99
2019-06-07T18:30:54.888Z,16.82
2019-06-07T18:33:21.374Z,16.81
2019-06-07T18:35:48.999Z,16.77
2019-06-07T18:38:14.960Z,16.85
2019-06-07T18:40:41.778Z,16.93
2019-06-07T18:43:08.537Z,16.90
2019-06-07T18:45:35.306Z,16.71
2019-06-07T18:48:02.054Z,16.63
2019-06-07T18:50:28.842Z,16.70
2019-06-07T18:52:55.712Z,16.77
2019-06-07T18:55:22.520Z,16.71
2019-06-07T18:57:50.199Z,16.58
2019-06-07T19:00:16.148Z,16.40
2019-06-07T19:02:42.887Z,16.32
2019-06-07T19:05:09.699Z,16.47
2019-06-07T19:07:36.557Z,16.43
2019-06-07T19:10:04.378Z,16.43
2019-06-07T19:12:31.125Z,16.39
2019-06-07T19:14:57.866Z,16.33
2019-06-07T19:17:24.648Z,16.29
2019-06-07T19:19:51.961Z,16.24
2019-06-07T19:22:18.235Z,16.25
2019-06-07T19:24:44.990Z,16.12
2019-06-07T19:27:11.719Z,16.02
2019-06-07T19:29:38.765Z,16.17
2019-06-07T19:32:05.598Z,16.08
2019-06-07T19:34:32.430Z,15.85
2019-06-07T19:36:59.800Z,15.86
2019-06-07T19:39:25.919Z,15.78
2019-06-07T19:41:53.916Z,15.74
2019-06-07T19:44:19.494Z,15.72
2019-06-07T19:46:46.245Z,15.74
2019-06-07T19:49:12.987Z,15.76
2019-06-07T19:51:39.902Z,15.81
2019-06-07T19:54:06.958Z,15.75
2019-06-07T19:56:33.723Z,15.96
2019-06-07T19:59:01.718Z,15.67
2019-06-07T20:01:27.221Z,15.61
2019-06-07T20:03:53.978Z,15.52
2019-06-07T20:06:20.718Z,15.61
2019-06-07T20:08:47.455Z,15.54
2019-06-07T20:11:14.202Z,15.70
2019-06-07T20:13:40.954Z,15.54
2019-06-07T20:16:07.706Z,15.61
2019-06-07T20:18:34.490Z,15.58
2019-06-07T20:21:02.595Z,15.49
2019-06-07T20:23:27.997Z,15.58
2019-06-07T20:25:54.718Z,15.42
2019-06-07T20:28:22.126Z,15.51
2019-06-07T20:30:52.147Z,15.62
2019-06-07T20:33:15.622Z,15.73
2019-06-07T20:35:42.491Z,15.70
2019-06-07T20:38:09.583Z,15.73
2019-06-07T20:40:36.051Z,15.91
2019-06-07T20:43:03.509Z,15.91
2019-06-07T20:45:33.729Z,15.78
2019-06-07T20:47:56.298Z,15.90
2019-06-07T20:50:23.108Z,16.00
2019-06-07T20:52:49.827Z,15.97
2019-06-07T20:55:16.594Z,15.94
2019-06-07T20:57:43.326Z,15.76
2019-06-07T21:00:16.635Z,15.94
2019-06-07T21:02:36.895Z,15.98
2019-06-07T21:05:05.191Z,16.15
2019-06-07T21:07:30.627Z,16.19
2019-06-07T21:09:57.406Z,16.27
2019-06-07T21:12:24.122Z,16.13
2019-06-07T21:14:50.869Z,16.18
2019-06-07T21:17:17.594Z,16.25
2019-06-07T21:19:44.329Z,16.24
2019-06-07T21:22:11.072Z,16.31
2019-06-07T21:24:37.803Z,16.31
2019-06-07T21:27:05.349Z,16.07
2019-06-07T21:29:31.262Z,15.96
2019-06-07T21:31:58.003Z,15.93
2019-06-07T21:34:24.726Z,15.93
2019-06-07T21:36:51.499Z,15.90
2019-06-07T21:39:18.223Z,15.83
2019-06-07T21:41:44.994Z,15.76
2019-06-07T21:44:12.433Z,15.59
2019-06-07T21:46:38.454Z,15.57
2019-06-07T21:49:06.413Z,15.50
2019-06-07T21:51:31.925Z,15.51
2019-06-07T21:53:58.662Z,15.53
2019-06-07T21:56:25.405Z,15.71
2019-06-07T21:58:52.142Z,15.68
2019-06-07T22:01:20.525Z,15.61
2019-06-07T22:03:47.286Z,15.60
2019-06-07T22:06:14.375Z,15.70
2019-06-07T22:08:41.115Z,15.68
2019-06-07T22:11:08.215Z,15.72
2019-06-07T22:13:34.594Z,15.65
2019-06-07T22:16:01.356Z,15.72
2019-06-07T22:18:28.094Z,15.76
2019-06-07T22:20:54.829Z,15.76
2019-06-07T22:23:21.578Z,15.82
2019-06-07T22:25:48.299Z,15.81
2019-06-07T22:28:15.041Z,15.77
2019-06-07T22:30:42.054Z,15.62
2019-06-07T22:33:08.783Z,15.71
2019-06-07T22:35:35.501Z,15.83
2019-06-07T22:38:02.271Z,15.79
2019-06-07T22:40:28.997Z,15.92
2019-06-07T22:42:55.742Z,15.84
2019-06-07T22:45:22.462Z,15.91
2019-06-07T22:47:49.216Z,15.86
2019-06-07T22:50:16.363Z,15.80
2019-06-07T22:52:42.702Z,15.60
2019-06-07T22:55:10.134Z,15.65
2019-06-07T22:57:41.830Z,15.68
2019-06-07T23:00:10.521Z,15.83
2019-06-07T23:02:35.275Z,15.82
2019-06-07T23:05:04.751Z,15.91
2019-06-07T23:07:28.805Z,15.86
2019-06-07T23:09:55.586Z,15.79
2019-06-07T23:12:22.326Z,15.80
2019-06-07T23:14:49.069Z,15.79
2019-06-07T23:17:15.830Z,15.73
2019-06-07T23:19:42.530Z,15.72
2019-06-07T23:22:09.915Z,15.51
2019-06-07T23:24:36.026Z,15.59
2019-06-07T23:27:02.751Z,15.64
2019-06-07T23:29:29.489Z,15.66
2019-06-07T23:31:56.249Z,15.64
2019-06-07T23:34:22.990Z,15.74
2019-06-07T23:36:49.722Z,15.78
2019-06-07T23:39:17.231Z,15.69
2019-06-07T23:41:43.203Z,15.55
2019-06-07T23:44:11.006Z,15.56
2019-06-07T23:46:36.682Z,15.86
2019-06-07T23:49:03.448Z,15.60
2019-06-07T23:51:30.171Z,15.55
2019-06-07T23:53:56.917Z,15.28
2019-06-07T23:56:23.642Z,15.49
2019-06-07T23:58:50.390Z,15.41
